ADDS METAR Data INFO
IDs: Format: Raw Decoded Include TAF

Data at: 2033 UTC 23 May 2017

Region: TOP
KATL 231952Z 21006KT 10SM FEW015 BKN030 OVC070 21/18 A2975 RMK AO2 SLP066 T02110178

KBOS 231954Z 10008KT 10SM FEW140 OVC200 16/09 A2984 RMK AO2 SLP106 T01610094

KBWI 231954Z 11006KT 8SM FEW018 BKN026 OVC040 18/15 A2986 RMK AO2 SLP111 T01780150

KCLE 231951Z 03013KT 10SM SCT250 23/10 A2978 RMK AO2 SLP079 T02330100

KCLT 232022Z 19009KT 6SM -RA BR SCT006 BKN011 OVC055 21/18 A2973 RMK AO2 RAB14 P0000 T02060183

KCVG 231952Z 11004KT 10SM FEW055 BKN120 OVC250 23/11 A2971 RMK AO2 SLP052 T02280106

KDCA 231952Z 09005KT 10SM BKN025 OVC031 19/16 A2986 RMK AO2 SLP112 T01940156

KDEN 231953Z 35013KT 10SM FEW055 BKN090 BKN110 14/01 A3015 RMK AO2 PK WND 36030/1931 SLP176 T01440006

KDFW 231953Z 32019G26KT 10SM FEW034 SCT070 BKN120 OVC130 23/14 A2986 RMK AO2 PK WND 31026/1950 RAB38E47 SLP105 P0000 T02280144 $

KDTW 231953Z 13005KT 10SM FEW050 SCT120 BKN230 22/07 A2976 RMK AO2 SLP077 T02220072

KEWR 231951Z 00000KT 10SM BKN140 OVC160 21/07 A2986 RMK AO2 SLP111 T02060072

KFLL 231953Z 15015G23KT 10SM FEW039 SCT250 31/20 A2989 RMK AO2 SLP122 T03110200

KIAD 231952Z 01004KT 10SM SCT022 OVC034 18/13 A2986 RMK AO2 SLP108 T01830133

KIAH 231953Z 03007KT 10SM FEW040 FEW250 29/18 A2979 RMK AO2 SLP087 T02890183

KJFK 231951Z 19005KT 10SM BKN140 OVC250 19/11 A2988 RMK AO2 SLP117 T01890106

KLAS 231956Z VRB05KT 10SM FEW250 34/M06 A2996 RMK AO2 SLP118 T03441056

KLAX 231953Z 27016KT 3SM BR OVC006 17/14 A2997 RMK AO2 SLP148 T01720144 $

KLGA 231951Z 03004KT 10SM BKN160 OVC250 21/07 A2986 RMK AO2 SLP112 T02060072

KMCO 231953Z 24014G21KT 10SM SCT047CB SCT065 BKN220 32/19 A2983 RMK AO2 SLP101 CB W MOV NE T03220194

KMDW 231953Z 14004KT 10SM SCT026 SCT055 OVC090 18/12 A2973 RMK AO2 RAE02 SLP065 P0000 T01830117

KMEM 231954Z 25007KT 10SM FEW045 BKN055 26/13 A2973 RMK AO2 SLP063 T02560133

KMIA 231953Z COR 14014G23KT 10SM SCT036 SCT250 31/22 A2991 RMK AO2 PK WND 15026/1911 SLP128 T03110217

KMSP 231953Z 09010KT 10SM FEW041 BKN050 OVC060 15/08 A2980 RMK AO2 SLP092 PRESENT WX VCSH T01500078

KORD 231951Z 00000KT 6SM -RA BKN070 OVC085 16/13 A2973 RMK AO2 SLP068 P0001 T01610128

KPDX 231953Z 31006KT 10SM FEW250 27/07 A2998 RMK AO2 SLP152 T02720067

KPHL 231954Z 06004KT 10SM FEW030 BKN130 OVC250 19/11 A2989 RMK AO2 SLP120 T01890111

KPHX 231951Z VRB05KT 10SM CLR 38/M03 A2984 RMK AO2 SLP082 T03781033

KPIT 231951Z 16006KT 10SM BKN150 OVC250 22/09 A2978 RMK AO2 SLP090 T02220094

KSAN 231951Z 30011KT 10SM FEW007 BKN011 20/15 A2998 RMK AO2 SLP151 T02000150

KSEA 231953Z 25007KT 10SM FEW200 24/13 A2999 RMK AO2 SLP158 T02390128

KSFO 231956Z 30014KT 10SM FEW009 FEW200 19/11 A2995 RMK AO2 SLP141 T01940111

KSLC 231954Z 33007KT 10SM FEW090 FEW200 BKN250 26/04 A3013 RMK AO2 SLP158 T02560044

KSTL 232018Z 31010KT 10SM FEW013 BKN027 OVC043 19/15 A2973 RMK AO2 LTG DSNT E AND SE RAE11 TSE18 P0013 T01890150

KTPA 231953Z 19016KT 10SM FEW025 SCT045 BKN060 OVC250 30/23 A2987 RMK AO2 SLP115 TCU DSNT E T03000233


Page loaded:  20:33 UTC  |   01:33 PM Pacific  |   02:33 PM Mountain  |   03:33 PM Central  |   04:33 PM Eastern

 

ADVISORIES

FORECASTS

FORECASTS

OBSERVATIONS

USER TOOLS

ABOUT US